Del Norte — WDC2280 — position and weather

sailwx.info

Track history (hours):
 
Tides and Currents Weather Stations Pressure Air Temp Water Temp Dewpoint Dewpoint Depression Visibility Wind Speed Wind Dir Waves Ship Positions

Del Norte

Owner: Golden Gate Bridge,Hwy & Transportation District, Larkspur, CA. More information available from US FCC via Universal Licensing System and Coast Guard Vessel Documentation Center.

Last reported at 2015-May-29 02:33 UTC. Time now 2015-May-29 10:23 UTC.
Position N 37°53' W 122°25'.

Length 48 m.

Type: High speed craft. MMSI: 366990520.

Date/timePositionNaut miles runAvg speedWind from/ knotsBaromVisibWave heightAir tempDewpointWater temp
2015-May-29 02:33N 37°53' W 122°25'6 5.6
2015-May-29 01:33N 37°57' W 122°30'7 6.5
2015-May-29 00:33N 37°52' W 122°25'4 4.2
2015-May-28 23:34N 37°48' W 122°23'1010.4
2015-May-28 22:33N 37°57' W 122°30'4 4.5
2015-May-28 21:34N 37°54' W 122°26'4 4.4
2015-May-28 20:33N 37°57' W 122°30'8 8.0
2015-May-28 19:33N 37°51' W 122°24'8 7.9
2015-May-28 18:33N 37°57' W 122°30'8 7.6
2015-May-28 17:33N 37°51' W 122°24'7 6.5
2015-May-28 16:33N 37°56' W 122°29'1 1.5
2015-May-28 15:33N 37°55' W 122°28'8 8.2
2015-May-28 14:33N 37°48' W 122°24'5 4.9
2015-May-28 13:34N 37°53' W 122°25'0 0.0
2015-May-28 02:33N 37°53' W 122°25'6 5.5
2015-May-28 01:33N 37°57' W 122°30'7 7.1
2015-May-28 00:34N 37°51' W 122°25'4 3.6
2015-May-27 23:33N 37°48' W 122°23'1010.3
2015-May-27 22:33N 37°57' W 122°30'5 5.0
2015-May-27 21:33N 37°53' W 122°26'3 1.6
2015-May-27 19:33N 37°51' W 122°24'8 8.1
2015-May-27 18:33N 37°57' W 122°30'8 8.4
2015-May-27 17:34N 37°50' W 122°24'7 7.4
2015-May-27 16:33N 37°56' W 122°29'1 1.2
2015-May-27 15:33N 37°55' W 122°28'8 8.6
2015-May-27 14:33N 37°48' W 122°24'5 4.6
2015-May-27 13:33N 37°52' W 122°25'0 0.0
2015-May-27 02:33N 37°52' W 122°25'6 6.3
2015-May-27 01:33N 37°57' W 122°30'6 5.9
2015-May-27 00:34N 37°52' W 122°25'5 4.9
2015-May-26 23:34N 37°48' W 122°23'1010.4
2015-May-26 22:33N 37°57' W 122°30'5 4.7
2015-May-26 21:33N 37°53' W 122°26'5 4.6
2015-May-26 20:32N 37°57' W 122°31'9 9.0
2015-May-26 19:33N 37°50' W 122°23'9 8.8
2015-May-26 18:33N 37°57' W 122°30'8 7.7
2015-May-26 17:33N 37°51' W 122°24'7 6.6
2015-May-26 16:33N 37°56' W 122°29'2 2.2
2015-May-26 15:34N 37°55' W 122°27'7 7.4
2015-May-26 14:33N 37°48' W 122°24'5 5.1
2015-May-26 13:33N 37°53' W 122°25'  
2015-May-23 03:19N 37°57' W 122°31'5 7.2
2015-May-23 02:33N 37°53' W 122°25'5 5.4
2015-May-23 01:33N 37°57' W 122°30'7 7.0
2015-May-23 00:33N 37°51' W 122°25'4 3.7
2015-May-22 23:33N 37°48' W 122°24'1010.4
2015-May-22 22:33N 37°57' W 122°30'5 4.7
2015-May-22 21:33N 37°53' W 122°26'5 4.7
2015-May-22 20:33N 37°57' W 122°30'8 8.5
2015-May-22 19:34N 37°50' W 122°24'8 8.3
2015-May-22 18:32N 37°57' W 122°30'8 8.0
2015-May-22 17:34N 37°51' W 122°24'7 6.8
2015-May-22 16:33N 37°56' W 122°29'0 0.0
2015-May-22 15:32N 37°56' W 122°29'9 9.8
2015-May-22 14:33N 37°48' W 122°24'6 5.5
2015-May-22 13:34N 37°53' W 122°25'5 5.3
2015-May-22 12:33N 37°57' W 122°31'7 0.7
2015-May-22 02:33N 37°52' W 122°25'7 6.5
2015-May-22 01:33N 37°57' W 122°30'8 7.9
2015-May-22 00:33N 37°51' W 122°24'1 1.2
2015-May-21 23:33N 37°50' W 122°23'9 8.1
2015-May-21 22:28N 37°57' W 122°30'4 4.1
2015-May-21 21:33N 37°54' W 122°27'6 2.8
2015-May-21 19:33N 37°49' W 122°23'9 9.5
2015-May-21 18:33N 37°57' W 122°30'7 6.6
2015-May-21 17:33N 37°52' W 122°25'5 5.4
2015-May-21 16:33N 37°56' W 122°29'1 1.1
2015-May-21 15:33N 37°56' W 122°28'8 8.5
2015-May-21 14:33N 37°48' W 122°24'6 5.6
2015-May-21 13:33N 37°53' W 122°25'5 4.8
2015-May-21 12:27N 37°57' W 122°31'6 0.6
2015-May-21 02:34N 37°52' W 122°25'6 6.1
2015-May-21 01:33N 37°57' W 122°30'7 6.9
2015-May-21 00:33N 37°51' W 122°25'4 3.7
2015-May-20 23:33N 37°48' W 122°23'1010.3
2015-May-20 22:33N 37°57' W 122°30'4 3.7
2015-May-20 21:33N 37°54' W 122°27'4 3.7
2015-May-20 20:33N 37°57' W 122°30'8 8.1
2015-May-20 19:34N 37°51' W 122°24'8 8.0
2015-May-20 18:33N 37°57' W 122°30'8 7.9
2015-May-20 17:34N 37°50' W 122°24'7 6.9
2015-May-20 16:33N 37°56' W 122°29'1 1.3
2015-May-20 15:33N 37°55' W 122°28'8 8.4
2015-May-20 14:33N 37°48' W 122°24'5 5.1
2015-May-20 13:33N 37°53' W 122°25'6 5.7
2015-May-20 12:32N 37°57' W 122°31'5 0.5
2015-May-20 02:33N 37°53' W 122°25'5 5.2
2015-May-20 01:33N 37°57' W 122°30'6 6.3
2015-May-20 00:33N 37°52' W 122°25'4 4.4
2015-May-19 23:33N 37°48' W 122°24'1010.4
2015-May-19 22:33N 37°57' W 122°30'4 3.6
2015-May-19 21:33N 37°54' W 122°27'4 3.5
2015-May-19 20:33N 37°57' W 122°30'8 8.0
2015-May-19 19:34N 37°51' W 122°24'8 7.8
2015-May-19 18:32N 37°57' W 122°30'8 8.3
2015-May-19 17:33N 37°50' W 122°24'7 7.1
2015-May-19 16:33N 37°56' W 122°29'1 0.9
2015-May-19 15:33N 37°56' W 122°28'9 8.7
2015-May-19 14:33N 37°48' W 122°24'5 5.0
2015-May-19 13:33N 37°53' W 122°25'6 0.6
2015-May-19 03:15N 37°57' W 122°30'5 7.7
2015-May-19 02:33N 37°53' W 122°25'  
Track history (hours):
 
Tides and Currents Weather Stations Pressure Air Temp Water Temp Dewpoint Dewpoint Depression Visibility Wind Speed Wind Dir Waves Ship Positions

Del Norte

Owner: Golden Gate Bridge,Hwy & Transportation District, Larkspur, CA. More information available from US FCC via Universal Licensing System and Coast Guard Vessel Documentation Center.

Last reported at 2015-May-29 02:33 UTC. Time now 2015-May-29 10:23 UTC.
Position N 37°53' W 122°25'.

Length 48 m.

Type: High speed craft. MMSI: 366990520.

Date/timePositionNaut miles runAvg speedWind from/ knotsBaromVisibWave heightAir tempDewpointWater temp
2015-May-29 02:33N 37°53' W 122°25'6 5.6
2015-May-29 01:33N 37°57' W 122°30'7 6.5
2015-May-29 00:33N 37°52' W 122°25'4 4.2
2015-May-28 23:34N 37°48' W 122°23'1010.4
2015-May-28 22:33N 37°57' W 122°30'4 4.5
2015-May-28 21:34N 37°54' W 122°26'4 4.4
2015-May-28 20:33N 37°57' W 122°30'8 8.0
2015-May-28 19:33N 37°51' W 122°24'8 7.9
2015-May-28 18:33N 37°57' W 122°30'8 7.6
2015-May-28 17:33N 37°51' W 122°24'7 6.5
2015-May-28 16:33N 37°56' W 122°29'1 1.5
2015-May-28 15:33N 37°55' W 122°28'8 8.2
2015-May-28 14:33N 37°48' W 122°24'5 4.9
2015-May-28 13:34N 37°53' W 122°25'0 0.0
2015-May-28 02:33N 37°53' W 122°25'6 5.5
2015-May-28 01:33N 37°57' W 122°30'7 7.1
2015-May-28 00:34N 37°51' W 122°25'4 3.6
2015-May-27 23:33N 37°48' W 122°23'1010.3
2015-May-27 22:33N 37°57' W 122°30'5 5.0
2015-May-27 21:33N 37°53' W 122°26'3 1.6
2015-May-27 19:33N 37°51' W 122°24'8 8.1
2015-May-27 18:33N 37°57' W 122°30'8 8.4
2015-May-27 17:34N 37°50' W 122°24'7 7.4
2015-May-27 16:33N 37°56' W 122°29'1 1.2
2015-May-27 15:33N 37°55' W 122°28'8 8.6
2015-May-27 14:33N 37°48' W 122°24'5 4.6
2015-May-27 13:33N 37°52' W 122°25'0 0.0
2015-May-27 02:33N 37°52' W 122°25'6 6.3
2015-May-27 01:33N 37°57' W 122°30'6 5.9
2015-May-27 00:34N 37°52' W 122°25'5 4.9
2015-May-26 23:34N 37°48' W 122°23'1010.4
2015-May-26 22:33N 37°57' W 122°30'5 4.7
2015-May-26 21:33N 37°53' W 122°26'5 4.6
2015-May-26 20:32N 37°57' W 122°31'9 9.0
2015-May-26 19:33N 37°50' W 122°23'9 8.8
2015-May-26 18:33N 37°57' W 122°30'8 7.7
2015-May-26 17:33N 37°51' W 122°24'7 6.6
2015-May-26 16:33N 37°56' W 122°29'2 2.2
2015-May-26 15:34N 37°55' W 122°27'7 7.4
2015-May-26 14:33N 37°48' W 122°24'5 5.1
2015-May-26 13:33N 37°53' W 122°25'  
2015-May-23 03:19N 37°57' W 122°31'5 7.2
2015-May-23 02:33N 37°53' W 122°25'5 5.4
2015-May-23 01:33N 37°57' W 122°30'7 7.0
2015-May-23 00:33N 37°51' W 122°25'4 3.7
2015-May-22 23:33N 37°48' W 122°24'1010.4
2015-May-22 22:33N 37°57' W 122°30'5 4.7
2015-May-22 21:33N 37°53' W 122°26'5 4.7
2015-May-22 20:33N 37°57' W 122°30'8 8.5
2015-May-22 19:34N 37°50' W 122°24'8 8.3
2015-May-22 18:32N 37°57' W 122°30'8 8.0
2015-May-22 17:34N 37°51' W 122°24'7 6.8
2015-May-22 16:33N 37°56' W 122°29'0 0.0
2015-May-22 15:32N 37°56' W 122°29'9 9.8
2015-May-22 14:33N 37°48' W 122°24'6 5.5
2015-May-22 13:34N 37°53' W 122°25'5 5.3
2015-May-22 12:33N 37°57' W 122°31'7 0.7
2015-May-22 02:33N 37°52' W 122°25'7 6.5
2015-May-22 01:33N 37°57' W 122°30'8 7.9
2015-May-22 00:33N 37°51' W 122°24'1 1.2
2015-May-21 23:33N 37°50' W 122°23'9 8.1
2015-May-21 22:28N 37°57' W 122°30'4 4.1
2015-May-21 21:33N 37°54' W 122°27'6 2.8
2015-May-21 19:33N 37°49' W 122°23'9 9.5
2015-May-21 18:33N 37°57' W 122°30'7 6.6
2015-May-21 17:33N 37°52' W 122°25'5 5.4
2015-May-21 16:33N 37°56' W 122°29'1 1.1
2015-May-21 15:33N 37°56' W 122°28'8 8.5
2015-May-21 14:33N 37°48' W 122°24'6 5.6
2015-May-21 13:33N 37°53' W 122°25'5 4.8
2015-May-21 12:27N 37°57' W 122°31'6 0.6
2015-May-21 02:34N 37°52' W 122°25'6 6.1
2015-May-21 01:33N 37°57' W 122°30'7 6.9
2015-May-21 00:33N 37°51' W 122°25'4 3.7
2015-May-20 23:33N 37°48' W 122°23'1010.3
2015-May-20 22:33N 37°57' W 122°30'4 3.7
2015-May-20 21:33N 37°54' W 122°27'4 3.7
2015-May-20 20:33N 37°57' W 122°30'8 8.1
2015-May-20 19:34N 37°51' W 122°24'8 8.0
2015-May-20 18:33N 37°57' W 122°30'8 7.9
2015-May-20 17:34N 37°50' W 122°24'7 6.9
2015-May-20 16:33N 37°56' W 122°29'1 1.3
2015-May-20 15:33N 37°55' W 122°28'8 8.4
2015-May-20 14:33N 37°48' W 122°24'5 5.1
2015-May-20 13:33N 37°53' W 122°25'6 5.7
2015-May-20 12:32N 37°57' W 122°31'5 0.5
2015-May-20 02:33N 37°53' W 122°25'5 5.2
2015-May-20 01:33N 37°57' W 122°30'6 6.3
2015-May-20 00:33N 37°52' W 122°25'4 4.4
2015-May-19 23:33N 37°48' W 122°24'1010.4
2015-May-19 22:33N 37°57' W 122°30'4 3.6
2015-May-19 21:33N 37°54' W 122°27'4 3.5
2015-May-19 20:33N 37°57' W 122°30'8 8.0
2015-May-19 19:34N 37°51' W 122°24'8 7.8
2015-May-19 18:32N 37°57' W 122°30'8 8.3
2015-May-19 17:33N 37°50' W 122°24'7 7.1
2015-May-19 16:33N 37°56' W 122°29'1 0.9
2015-May-19 15:33N 37°56' W 122°28'9 8.7
2015-May-19 14:33N 37°48' W 122°24'5 5.0
2015-May-19 13:33N 37°53' W 122°25'6 0.6
2015-May-19 03:15N 37°57' W 122°30'5 7.7
2015-May-19 02:33N 37°53' W 122°25'  

Dump ship's entire track history